createdAt,value
2019-04-19T00:00:56.989Z,69.47
2019-04-19T00:03:27.352Z,69.16
2019-04-19T00:05:54.144Z,69.02
2019-04-19T00:08:37.236Z,68.94
2019-04-19T00:11:06.508Z,68.80
2019-04-19T00:13:23.801Z,68.61
2019-04-19T00:15:52.272Z,68.48
2019-04-19T00:18:21.753Z,68.25
2019-04-19T00:21:10.743Z,67.82
2019-04-19T00:23:31.053Z,68.04
2019-04-19T00:25:51.601Z,67.77
2019-04-19T00:28:31.372Z,67.58
2019-04-19T00:30:58.109Z,67.49
2019-04-19T00:33:29.363Z,67.45
2019-04-19T00:35:51.712Z,67.51
2019-04-19T00:38:36.935Z,67.37
2019-04-19T00:41:09.589Z,67.20
2019-04-19T00:43:53.573Z,67.49
2019-04-19T00:46:29.301Z,67.91
2019-04-19T00:48:55.148Z,67.66
2019-04-19T00:51:23.987Z,67.96
2019-04-19T00:53:55.689Z,67.67
2019-04-19T00:56:16.826Z,68.11
2019-04-19T00:58:50.278Z,68.15
2019-04-19T01:01:19.468Z,68.36
2019-04-19T01:03:47.101Z,68.03
2019-04-19T01:06:16.818Z,68.16
2019-04-19T01:08:56.631Z,68.11
2019-04-19T01:11:28.553Z,68.43
2019-04-19T01:13:58.934Z,68.06
2019-04-19T01:16:24.098Z,68.02
2019-04-19T01:18:55.147Z,68.17
2019-04-19T01:21:15.384Z,68.01
2019-04-19T01:23:48.184Z,68.03
2019-04-19T01:26:16.432Z,68.04
2019-04-19T01:28:51.216Z,67.89
2019-04-19T01:31:19.092Z,67.93
2019-04-19T01:33:45.927Z,67.96
2019-04-19T01:36:14.637Z,67.97
2019-04-19T01:38:47.916Z,68.03
2019-04-19T01:41:29.616Z,68.06
2019-04-19T01:43:59.639Z,67.95
2019-04-19T01:46:34.093Z,68.02
2019-04-19T01:49:05.656Z,68.12
2019-04-19T01:51:43.845Z,67.84
2019-04-19T01:54:29.638Z,67.77
2019-04-19T01:56:48.310Z,67.93
2019-04-19T01:59:13.611Z,67.93
2019-04-19T02:01:42.030Z,67.90
2019-04-19T02:04:15.575Z,67.90
2019-04-19T02:06:44.559Z,67.81
2019-04-19T02:09:25.417Z,67.84
2019-04-19T02:11:53.502Z,67.93
2019-04-19T02:14:20.590Z,67.80
2019-04-19T02:16:51.741Z,67.57
2019-04-19T02:19:21.042Z,68.14
2019-04-19T02:21:48.885Z,68.03
2019-04-19T02:24:17.033Z,67.99
2019-04-19T02:26:53.280Z,67.96
2019-04-19T02:29:20.250Z,67.88
2019-04-19T02:32:15.631Z,68.04
2019-04-19T02:34:39.521Z,68.05
2019-04-19T02:37:16.150Z,67.98
2019-04-19T02:39:45.275Z,68.00
2019-04-19T02:44:58.030Z,67.98
2019-04-19T02:47:39.262Z,67.76
2019-04-19T02:52:33.504Z,67.71
2019-04-19T02:57:32.807Z,67.91
2019-04-19T03:00:13.748Z,67.80
2019-04-19T03:02:50.319Z,67.83
2019-04-19T03:07:17.481Z,68.15
2019-04-19T03:09:47.303Z,68.36
2019-04-19T03:12:38.484Z,68.54
2019-04-19T03:15:02.005Z,68.41
2019-04-19T03:17:35.161Z,68.34
2019-04-19T03:20:01.668Z,68.67
2019-04-19T03:22:28.378Z,68.50
2019-04-19T03:25:08.251Z,68.55
2019-04-19T03:27:24.243Z,68.60
2019-04-19T03:29:49.196Z,68.74
2019-04-19T03:32:57.441Z,68.80
2019-04-19T03:35:05.109Z,68.90
2019-04-19T03:37:38.315Z,68.93
2019-04-19T03:40:12.824Z,68.95
2019-04-19T03:42:47.460Z,68.97
2019-04-19T03:45:12.832Z,68.90
2019-04-19T03:47:48.898Z,68.68
2019-04-19T03:50:15.483Z,68.83
2019-04-19T03:52:42.669Z,69.02
2019-04-19T03:55:13.159Z,69.16
2019-04-19T03:57:37.393Z,69.04
2019-04-19T03:59:56.370Z,69.43
2019-04-19T04:02:31.758Z,69.89
2019-04-19T04:04:59.533Z,69.68
2019-04-19T04:07:28.669Z,69.68
2019-04-19T04:09:59.252Z,69.73
2019-04-19T04:12:39.555Z,69.91
2019-04-19T04:15:11.994Z,69.81
2019-04-19T04:17:31.136Z,70.02
2019-04-19T04:20:00.868Z,70.15
2019-04-19T04:22:33.501Z,70.07
2019-04-19T04:25:09.802Z,70.07
2019-04-19T04:27:43.721Z,70.39
2019-04-19T04:30:10.143Z,70.47
2019-04-19T04:32:43.519Z,70.70
2019-04-19T04:35:13.602Z,70.52
2019-04-19T04:37:46.950Z,70.82
2019-04-19T04:40:02.165Z,70.78
2019-04-19T04:42:37.661Z,71.02
2019-04-19T04:45:23.437Z,71.12
2019-04-19T04:47:47.763Z,71.38
2019-04-19T04:50:35.506Z,71.58
2019-04-19T04:52:40.349Z,71.50
2019-04-19T04:55:11.833Z,72.19
2019-04-19T04:57:48.403Z,71.99
2019-04-19T05:00:10.263Z,72.08
2019-04-19T05:02:58.746Z,72.42
2019-04-19T05:05:29.700Z,72.52
2019-04-19T05:08:04.356Z,72.53
2019-04-19T05:10:30.711Z,72.39
2019-04-19T05:15:34.842Z,72.33
2019-04-19T05:18:21.375Z,72.43
2019-04-19T05:20:29.082Z,72.79
2019-04-19T05:23:02.744Z,72.58
2019-04-19T05:25:35.754Z,73.10
2019-04-19T05:28:01.251Z,72.47
2019-04-19T05:30:15.321Z,72.26
2019-04-19T05:32:55.891Z,72.21
2019-04-19T05:35:27.334Z,71.98
2019-04-19T05:38:03.056Z,71.04
2019-04-19T05:40:32.658Z,71.34
2019-04-19T05:43:33.286Z,71.35
2019-04-19T05:46:10.646Z,70.86
2019-04-19T05:48:08.202Z,70.81
2019-04-19T05:50:56.730Z,70.49
2019-04-19T05:53:14.224Z,70.14
2019-04-19T05:55:30.429Z,69.71
2019-04-19T05:58:11.435Z,69.53
2019-04-19T06:00:47.258Z,69.57
2019-04-19T06:03:14.168Z,69.36
2019-04-19T06:06:05.133Z,67.31
2019-04-19T06:08:14.044Z,67.29
2019-04-19T06:10:40.887Z,66.95
2019-04-19T06:13:08.511Z,66.87
2019-04-19T06:15:56.957Z,66.96
2019-04-19T06:18:21.772Z,66.10
2019-04-19T06:21:04.209Z,64.78
2019-04-19T06:23:29.648Z,63.47
2019-04-19T06:26:21.460Z,63.41
2019-04-19T06:28:28.644Z,63.70
2019-04-19T06:30:55.053Z,62.94
2019-04-19T06:33:26.625Z,63.15
2019-04-19T06:35:49.650Z,62.47
2019-04-19T06:38:09.997Z,60.72
2019-04-19T06:40:45.280Z,59.14
2019-04-19T06:43:14.207Z,58.75
2019-04-19T06:45:55.582Z,58.76
2019-04-19T06:48:14.398Z,59.06
2019-04-19T06:50:43.146Z,59.21
2019-04-19T06:53:10.163Z,57.83
2019-04-19T06:55:44.980Z,58.43
2019-04-19T06:58:15.605Z,56.88
2019-04-19T07:00:54.946Z,55.71
2019-04-19T07:03:10.936Z,56.29
2019-04-19T07:05:49.329Z,55.30
2019-04-19T07:08:52.862Z,55.39
2019-04-19T07:11:00.537Z,55.58
2019-04-19T07:13:26.204Z,54.67
2019-04-19T07:16:19.544Z,55.17
2019-04-19T07:18:24.991Z,53.67
2019-04-19T07:21:00.320Z,53.32
2019-04-19T07:23:34.255Z,53.01
2019-04-19T07:26:04.227Z,53.40
2019-04-19T07:28:17.337Z,52.75
2019-04-19T07:30:48.204Z,51.80
2019-04-19T07:33:15.570Z,52.18
2019-04-19T07:36:00.586Z,52.53
2019-04-19T07:38:35.917Z,52.32
2019-04-19T07:41:05.892Z,51.67
2019-04-19T07:43:28.676Z,51.50
2019-04-19T07:46:09.419Z,50.58
2019-04-19T07:48:23.065Z,49.64
2019-04-19T07:50:58.612Z,50.03
2019-04-19T07:53:29.576Z,49.60
2019-04-19T07:56:00.459Z,49.01
2019-04-19T07:58:43.554Z,50.58
2019-04-19T08:01:16.183Z,50.96
2019-04-19T08:04:00.964Z,49.71
2019-04-19T08:06:18.850Z,50.11
2019-04-19T08:09:02.571Z,48.98
2019-04-19T08:11:26.016Z,48.47
2019-04-19T08:16:16.416Z,47.61
2019-04-19T08:28:35.025Z,45.41
2019-04-19T08:30:57.937Z,45.52
2019-04-19T08:33:23.972Z,45.62
2019-04-19T08:35:55.869Z,45.75
2019-04-19T08:38:25.712Z,44.62
2019-04-19T08:41:05.933Z,44.83
2019-04-19T08:43:42.396Z,43.45
2019-04-19T08:46:00.778Z,43.85
2019-04-19T08:48:45.533Z,43.09
2019-04-19T08:51:12.131Z,42.85
2019-04-19T08:53:54.293Z,43.17
2019-04-19T08:56:24.251Z,43.56
2019-04-19T08:58:58.238Z,43.13
2019-04-19T09:01:36.900Z,43.43
2019-04-19T09:04:07.124Z,42.44
2019-04-19T09:07:15.892Z,41.34
2019-04-19T09:08:58.141Z,41.08
2019-04-19T09:11:30.938Z,42.82
2019-04-19T09:14:04.839Z,41.96
2019-04-19T09:16:29.900Z,41.18
2019-04-19T09:19:07.261Z,41.31
2019-04-19T09:21:27.400Z,41.37
2019-04-19T09:23:52.912Z,41.13
2019-04-19T09:26:30.385Z,40.20
2019-04-19T09:29:09.905Z,39.52
2019-04-19T09:31:29.852Z,39.07
2019-04-19T09:33:47.388Z,38.36
2019-04-19T09:36:18.703Z,37.89
2019-04-19T09:39:00.783Z,38.22
2019-04-19T09:41:24.636Z,38.13
2019-04-19T09:43:58.645Z,37.67
2019-04-19T09:46:16.777Z,37.37
2019-04-19T09:49:02.392Z,37.11
2019-04-19T09:51:33.895Z,36.53
2019-04-19T09:54:10.776Z,36.51
2019-04-19T09:56:34.229Z,36.10
2019-04-19T09:58:57.552Z,35.84
2019-04-19T10:01:22.751Z,35.36
2019-04-19T10:03:52.653Z,35.98
2019-04-19T10:06:17.503Z,35.95
2019-04-19T10:08:45.832Z,35.67
2019-04-19T10:11:14.821Z,35.01
2019-04-19T10:13:43.999Z,34.67
2019-04-19T10:16:24.187Z,35.55
2019-04-19T10:18:59.304Z,34.60
2019-04-19T10:21:33.361Z,34.70
2019-04-19T10:24:00.983Z,34.03
2019-04-19T10:26:38.421Z,34.13
2019-04-19T10:29:16.700Z,33.68
2019-04-19T10:31:45.319Z,33.16
2019-04-19T10:34:14.402Z,32.67
2019-04-19T10:36:42.867Z,33.18
2019-04-19T10:39:13.870Z,32.72
2019-04-19T10:41:43.810Z,31.06
2019-04-19T10:44:16.949Z,31.53
2019-04-19T10:46:43.375Z,32.09
2019-04-19T10:49:17.438Z,32.19
2019-04-19T10:51:47.043Z,30.28
2019-04-19T10:54:15.334Z,29.93
2019-04-19T10:56:48.547Z,30.07
2019-04-19T10:59:16.928Z,30.14
2019-04-19T11:01:45.461Z,30.36
2019-04-19T11:04:15.028Z,29.37
2019-04-19T11:06:45.251Z,28.71
2019-04-19T11:09:14.382Z,27.78
2019-04-19T11:11:43.556Z,28.33
2019-04-19T11:14:12.237Z,28.84
2019-04-19T11:16:41.868Z,27.85
2019-04-19T11:19:17.416Z,27.63
2019-04-19T11:21:41.325Z,27.03
2019-04-19T11:24:09.741Z,27.21
2019-04-19T11:26:38.999Z,27.00
2019-04-19T11:29:07.987Z,27.50
2019-04-19T11:31:37.930Z,27.19
2019-04-19T11:34:06.949Z,26.47
2019-04-19T11:36:35.639Z,27.24
2019-04-19T11:39:07.314Z,26.92
2019-04-19T11:41:36.839Z,26.13
2019-04-19T11:44:13.896Z,26.46
2019-04-19T11:46:36.055Z,26.08
2019-04-19T11:49:05.806Z,25.71
2019-04-19T11:51:34.412Z,24.82
2019-04-19T11:54:02.860Z,24.74
2019-04-19T11:56:37.822Z,25.14
2019-04-19T11:59:14.360Z,23.68
2019-04-19T12:01:46.003Z,23.36
2019-04-19T12:04:14.496Z,24.54
2019-04-19T12:06:42.934Z,24.34
2019-04-19T12:09:14.030Z,24.29
2019-04-19T12:11:42.710Z,23.37
2019-04-19T12:14:12.286Z,23.17
2019-04-19T12:16:41.298Z,23.75
2019-04-19T12:19:11.992Z,24.49
2019-04-19T12:21:41.285Z,24.58
2019-04-19T12:24:10.862Z,24.79
2019-04-19T12:26:39.842Z,24.36
2019-04-19T12:29:09.277Z,23.14
2019-04-19T12:31:37.657Z,23.59
2019-04-19T12:34:09.203Z,24.16
2019-04-19T12:36:37.120Z,24.56
2019-04-19T12:39:09.314Z,24.53
2019-04-19T12:41:39.795Z,24.21
2019-04-19T12:44:09.044Z,24.39
2019-04-19T12:46:37.591Z,23.82
2019-04-19T12:49:06.755Z,23.58
2019-04-19T12:51:36.475Z,23.32
2019-04-19T12:54:05.846Z,23.20
2019-04-19T12:56:34.251Z,23.06
2019-04-19T12:59:02.534Z,22.78
2019-04-19T13:01:32.535Z,23.77
2019-04-19T13:04:02.577Z,24.40
2019-04-19T13:06:35.743Z,24.25
2019-04-19T13:09:05.657Z,24.05
2019-04-19T13:11:36.736Z,23.69
2019-04-19T13:14:05.867Z,24.70
2019-04-19T13:16:34.705Z,24.04
2019-04-19T13:19:03.743Z,24.46
2019-04-19T13:21:32.446Z,24.87
2019-04-19T13:24:00.770Z,24.11
2019-04-19T13:26:29.378Z,24.63
2019-04-19T13:28:57.808Z,23.96
2019-04-19T13:31:27.119Z,23.68
2019-04-19T13:33:55.733Z,23.84
2019-04-19T13:36:26.869Z,24.32
2019-04-19T13:39:13.297Z,24.45
2019-04-19T13:41:48.470Z,22.97
2019-04-19T13:44:16.973Z,22.98
2019-04-19T13:46:46.690Z,23.37
2019-04-19T13:49:16.735Z,23.59
2019-04-19T13:51:45.208Z,22.25
2019-04-19T13:54:14.672Z,22.23
2019-04-19T13:56:43.171Z,22.11
2019-04-19T13:59:12.512Z,20.80
2019-04-19T14:01:42.756Z,21.08
2019-04-19T14:04:11.462Z,20.72
2019-04-19T14:06:40.290Z,20.94
2019-04-19T14:09:11.445Z,21.22
2019-04-19T14:11:39.921Z,21.33
2019-04-19T14:14:08.230Z,20.97
2019-04-19T14:16:37.698Z,21.29
2019-04-19T14:19:07.219Z,20.98
2019-04-19T14:21:37.086Z,21.46
2019-04-19T14:24:05.605Z,20.73
2019-04-19T14:26:39.744Z,20.88
2019-04-19T14:29:05.346Z,20.85
2019-04-19T14:31:34.490Z,21.03
2019-04-19T14:34:03.451Z,21.19
2019-04-19T14:36:31.849Z,21.18
2019-04-19T14:39:00.461Z,20.99
2019-04-19T14:41:29.577Z,20.86
2019-04-19T14:43:59.482Z,20.50
2019-04-19T14:46:28.931Z,20.40
2019-04-19T14:48:58.544Z,20.06
2019-04-19T14:51:30.077Z,20.46
2019-04-19T14:53:58.191Z,20.42
2019-04-19T14:56:28.160Z,19.66
2019-04-19T14:58:56.596Z,19.91
2019-04-19T15:01:26.809Z,19.41
2019-04-19T15:03:59.578Z,20.11
2019-04-19T15:06:29.029Z,20.24
2019-04-19T15:08:57.541Z,20.16
2019-04-19T15:11:25.846Z,20.93
2019-04-19T15:13:55.756Z,21.31
2019-04-19T15:16:24.771Z,21.26
2019-04-19T15:18:53.142Z,21.26
2019-04-19T15:21:23.881Z,21.08
2019-04-19T15:23:52.497Z,21.45
2019-04-19T15:26:20.903Z,21.19
2019-04-19T15:28:49.250Z,20.97
2019-04-19T15:31:18.398Z,21.18
2019-04-19T15:33:48.235Z,21.10
2019-04-19T15:36:19.701Z,21.28
2019-04-19T15:38:48.144Z,21.61
2019-04-19T15:41:16.473Z,21.60
2019-04-19T15:43:46.459Z,21.71
2019-04-19T15:46:15.661Z,21.64
2019-04-19T15:48:50.049Z,21.83
2019-04-19T15:51:21.984Z,22.13
2019-04-19T15:53:44.585Z,21.12
2019-04-19T15:56:14.438Z,21.38
2019-04-19T15:58:43.061Z,22.10
2019-04-19T16:01:14.393Z,22.12
2019-04-19T16:03:47.891Z,22.35
2019-04-19T16:06:20.933Z,22.87
2019-04-19T16:09:07.066Z,23.13
2019-04-19T16:11:44.584Z,23.12
2019-04-19T16:14:14.082Z,23.67
2019-04-19T16:16:43.144Z,23.68
2019-04-19T16:19:12.271Z,23.89
2019-04-19T16:21:46.221Z,24.11
2019-04-19T16:24:11.353Z,23.63
2019-04-19T16:26:41.280Z,24.35
2019-04-19T16:29:22.245Z,24.84
2019-04-19T16:31:40.414Z,24.02
2019-04-19T16:34:10.277Z,24.48
2019-04-19T16:36:39.539Z,24.43
2019-04-19T16:39:09.276Z,24.63
2019-04-19T16:41:37.794Z,25.00
2019-04-19T16:44:07.315Z,25.03
2019-04-19T16:46:37.082Z,25.46
2019-04-19T16:49:06.598Z,26.22
2019-04-19T16:51:45.329Z,26.59
2019-04-19T16:54:05.931Z,26.86
2019-04-19T16:56:35.496Z,26.79
2019-04-19T16:59:05.152Z,27.15
2019-04-19T17:01:34.889Z,27.04
2019-04-19T17:04:03.787Z,27.21
2019-04-19T17:06:32.869Z,27.32
2019-04-19T17:09:02.320Z,27.59
2019-04-19T17:11:32.615Z,27.76
2019-04-19T17:14:00.870Z,27.31
2019-04-19T17:16:46.787Z,27.56
2019-04-19T17:19:35.279Z,27.62
2019-04-19T17:22:11.838Z,27.61
2019-04-19T17:24:34.755Z,27.99
2019-04-19T17:27:03.251Z,28.03
2019-04-19T17:29:33.105Z,28.20
2019-04-19T17:32:02.492Z,28.63
2019-04-19T17:34:32.012Z,28.81
2019-04-19T17:37:00.422Z,29.12
2019-04-19T17:39:28.923Z,29.41
2019-04-19T17:41:57.154Z,29.46
2019-04-19T17:44:25.863Z,29.58
2019-04-19T17:46:54.524Z,29.73
2019-04-19T17:49:24.669Z,29.92
2019-04-19T17:52:01.850Z,30.09
2019-04-19T17:54:45.685Z,30.31
2019-04-19T17:56:53.389Z,30.31
2019-04-19T17:59:22.895Z,30.67
2019-04-19T18:01:52.974Z,30.93
2019-04-19T18:04:22.005Z,31.10
2019-04-19T18:06:56.392Z,31.15
2019-04-19T18:09:22.868Z,31.57
2019-04-19T18:11:51.460Z,31.68
2019-04-19T18:14:19.919Z,31.89
2019-04-19T18:16:48.487Z,32.03
2019-04-19T18:19:25.108Z,32.25
2019-04-19T18:21:48.154Z,32.44
2019-04-19T18:24:21.308Z,32.67
2019-04-19T18:26:46.748Z,32.87
2019-04-19T18:29:20.386Z,33.27
2019-04-19T18:31:50.981Z,33.63
2019-04-19T18:34:20.874Z,33.83
2019-04-19T18:36:54.274Z,34.01
2019-04-19T18:39:20.161Z,34.12
2019-04-19T18:41:49.622Z,34.42
2019-04-19T18:44:25.850Z,34.35
2019-04-19T18:46:49.436Z,34.35
2019-04-19T18:49:17.913Z,34.55
2019-04-19T18:51:49.573Z,34.77
2019-04-19T18:54:22.889Z,34.93
2019-04-19T18:56:48.782Z,34.91
2019-04-19T18:59:21.957Z,35.20
2019-04-19T19:01:48.053Z,35.38
2019-04-19T19:04:22.850Z,35.68
2019-04-19T19:06:48.857Z,35.95
2019-04-19T19:09:19.215Z,36.17
2019-04-19T19:11:56.745Z,36.59
2019-04-19T19:14:21.082Z,36.98
2019-04-19T19:16:51.278Z,37.05
2019-04-19T19:19:24.302Z,37.31
2019-04-19T19:21:50.394Z,37.60
2019-04-19T19:24:39.111Z,37.91
2019-04-19T19:27:02.460Z,38.17
2019-04-19T19:29:18.540Z,38.32
2019-04-19T19:31:47.176Z,38.54
2019-04-19T19:34:20.668Z,38.73
2019-04-19T19:36:49.247Z,38.79
2019-04-19T19:39:24.125Z,39.06
2019-04-19T19:44:31.035Z,39.71
2019-04-19T19:47:20.567Z,39.76
2019-04-19T19:50:07.445Z,39.90
2019-04-19T19:52:09.178Z,39.98
2019-04-19T19:54:48.558Z,40.12
2019-04-19T19:57:11.482Z,40.25
2019-04-19T19:59:31.270Z,40.40
2019-04-19T20:02:07.434Z,40.41
2019-04-19T20:04:24.036Z,40.70
2019-04-19T20:07:00.162Z,40.92
2019-04-19T20:09:27.457Z,41.01
2019-04-19T20:11:57.184Z,41.01
2019-04-19T20:14:26.113Z,41.14
2019-04-19T20:16:54.766Z,41.42
2019-04-19T20:19:24.232Z,41.57
2019-04-19T20:22:01.706Z,41.73
2019-04-19T20:24:40.953Z,41.88
2019-04-19T20:27:05.035Z,42.15
2019-04-19T20:29:28.707Z,42.20
2019-04-19T20:31:54.533Z,42.37
2019-04-19T20:34:29.978Z,42.40
2019-04-19T20:36:53.491Z,42.55
2019-04-19T20:39:24.849Z,42.72
2019-04-19T20:41:57.249Z,43.00
2019-04-19T20:44:40.719Z,43.24
2019-04-19T20:46:52.516Z,43.51
2019-04-19T20:49:21.319Z,44.04
2019-04-19T20:52:00.559Z,44.63
2019-04-19T20:54:46.320Z,45.23
2019-04-19T20:57:14.412Z,46.54
2019-04-19T20:59:34.679Z,46.53
2019-04-19T21:01:54.992Z,47.02
2019-04-19T21:04:24.879Z,47.68
2019-04-19T21:06:53.903Z,47.81
2019-04-19T21:09:28.208Z,47.86
2019-04-19T21:11:52.711Z,47.85
2019-04-19T21:14:26.120Z,48.09
2019-04-19T21:16:57.029Z,48.27
2019-04-19T21:19:22.383Z,48.48
2019-04-19T21:21:53.604Z,48.97
2019-04-19T21:24:20.802Z,49.26
2019-04-19T21:26:49.336Z,50.47
2019-04-19T21:29:20.978Z,50.93
2019-04-19T21:31:52.705Z,51.13
2019-04-19T21:34:18.620Z,51.98
2019-04-19T21:36:53.482Z,52.41
2019-04-19T21:39:19.709Z,53.87
2019-04-19T21:41:48.740Z,54.52
2019-04-19T21:44:21.570Z,54.95
2019-04-19T21:46:48.411Z,55.01
2019-04-19T21:49:19.843Z,55.12
2019-04-19T21:51:50.323Z,55.37
2019-04-19T21:54:20.584Z,55.94
2019-04-19T21:56:52.743Z,56.67
2019-04-19T21:59:22.853Z,56.27
2019-04-19T22:01:51.249Z,56.27
2019-04-19T22:04:21.208Z,56.37
2019-04-19T22:06:56.142Z,56.25
2019-04-19T22:09:22.201Z,56.57
2019-04-19T22:11:50.119Z,56.76
2019-04-19T22:14:23.944Z,57.03
2019-04-19T22:16:49.039Z,56.92
2019-04-19T22:19:22.419Z,57.11
2019-04-19T22:21:48.595Z,57.20
2019-04-19T22:24:26.091Z,57.27
2019-04-19T22:26:52.226Z,57.60
2019-04-19T22:29:17.947Z,58.22
2019-04-19T22:31:47.600Z,57.97
2019-04-19T22:34:16.665Z,57.99
2019-04-19T22:36:48.534Z,58.12
2019-04-19T22:39:15.852Z,58.00
2019-04-19T22:41:44.402Z,58.06
2019-04-19T22:44:12.714Z,58.14
2019-04-19T22:46:47.278Z,58.21
2019-04-19T22:49:13.777Z,58.41
2019-04-19T22:51:42.610Z,58.68
2019-04-19T22:54:11.034Z,58.65
2019-04-19T22:56:54.035Z,58.59
2019-04-19T22:59:13.174Z,58.35
2019-04-19T23:02:03.128Z,58.29
2019-04-19T23:04:29.455Z,58.83
2019-04-19T23:07:02.828Z,58.64
2019-04-19T23:09:28.583Z,58.54
2019-04-19T23:11:57.616Z,58.86
2019-04-19T23:14:46.116Z,58.69
2019-04-19T23:17:14.611Z,58.70
2019-04-19T23:19:46.518Z,58.85
2019-04-19T23:22:14.285Z,59.05
2019-04-19T23:24:48.336Z,59.11
2019-04-19T23:27:26.121Z,59.57
2019-04-19T23:29:42.798Z,59.96
2019-04-19T23:32:11.179Z,60.11
2019-04-19T23:34:47.264Z,60.58
2019-04-19T23:37:13.210Z,60.70
2019-04-19T23:39:44.953Z,60.82
2019-04-19T23:42:11.103Z,61.00
2019-04-19T23:44:39.658Z,61.22
2019-04-19T23:47:08.550Z,61.98
2019-04-19T23:49:39.604Z,62.30
2019-04-19T23:52:07.447Z,62.30
2019-04-19T23:54:37.208Z,62.46
2019-04-19T23:57:15.936Z,62.51
2019-04-19T23:59:36.504Z,62.85
